Domov               UVHVVR             MKGP            O straneh              
ZDRAVSTVENO VARSTVO RASTLIN
  MREŽA AGROMET. POSTAJ
 ► PROGNOSTIČNA OBVESTILA
AGROMETEOROLOŠKI PODATKI -
ARSO
OBVLADOVANJE TVEGANJ ZARADI
NEUGODNIH VREMENSKIH RAZMER
  ► NARAVNE NESREČE
  ► SUŠA/MOČA
  ► NAMAKANJE
  ► ŽLED (gozdarstvo)
KARTOGRAFSKI PRIKAZI
SPLETNE POVEZAVE
PROJEKTI IN PUBLIKACIJE

AGROMETEOROLOŠKA MREŽA: VREMENSKE POSTAJE IN FENOLOŠKA OPAZOVANJA

Pregled podatkov za lokacijo Maribor - BTŠ, meteorološka postaja 35810

Pregled senzorjev na lokaciji

ID Ime Zadnja
vrednost
Datum in čas
zadnje
spremembe
(Lokalni čas)
Tip
senzorja
4297 Omočenost lista (U) 10 U 19.2.2020 02:00 A730WET
1723 Padavine (mm) 0 mm 19.2.2020 02:00 Generic 0.2 mm
1722 Relativna vlaga 2 m (% RH) 95.09 % RH 19.2.2020 02:00 Generic 0 - 100 %
1721 Temperatura 2 m (°C) 1.2 °C 19.2.2020 02:00 Generic -40 - +60 °C
4296 Smer vetra (°) 326.86 ° 19.2.2020 02:00 Generic 0 - 360
4295 Hitrost vetra (km/h) 0.59 km/h 19.2.2020 02:00 Generic 100 km/h

Pregled podatkov zadnjih 24 ur

Zap.
št.
Datum in čas
(Centralno
evropski čas)
Maribor - BTŠ
Omočenost
lista
Padavine Relativna
vlaga
2
m
Temperatura
2
m
Smer
vetra
Hitrost
vetra
1 19.2.2020 02:30
2 19.2.2020 02:00 10 0 95.1 1.2 326.9 0.6
3 19.2.2020 01:30 10 0 94.1 1.6 284 0.8
4 19.2.2020 01:00 10 0 93.2 2.9 246.1 1.1
5 19.2.2020 00:30 10 0 93.5 3.4 226.9 1
6 19.2.2020 00:00 10 0 94.2 3.3 300.4 1.7
7 18.2.2020 23:30 10 0 92.6 3.2 260 1.5
8 18.2.2020 23:00 10 0 91.7 4.4 264.2 1.2
9 18.2.2020 22:30 10 0 91.8 4.7 113.8 1.7
10 18.2.2020 22:00 9 0 90 4.3 83.6 1.3
11 18.2.2020 21:30 8 0 90.8 4.6 313.7 0.8
12 18.2.2020 21:00 8 0 90 4.7 298.4 0.8
13 18.2.2020 20:30 7 0 89.7 4.6 5.5 0.8
14 18.2.2020 20:00 5 0 87.3 5.3 67.9 0.8
15 18.2.2020 19:30 3 0 84.6 6.4 25.1 0.7
16 18.2.2020 19:00 2 0 83.6 6.7 76 1.3
17 18.2.2020 18:30 1 0 80.5 7.5 64 1.5
18 18.2.2020 18:00 0 0 77.9 8.4 45.5 2.1
19 18.2.2020 17:30 0 0 75.5 9 65.6 2.6
20 18.2.2020 17:00 0 0 77 9.5 91.5 2.3
21 18.2.2020 16:30 0 0 77.1 9.9 51.3 1.9
22 18.2.2020 16:00 0 0 74 10.6 71.9 2.2
23 18.2.2020 15:30 0 0 67.9 12 91.9 2.1
24 18.2.2020 15:00 0 0 65.1 13.2 39.1 2.9
25 18.2.2020 14:30 0 0 69.2 12.9 56.5 2.2
26 18.2.2020 14:00 0 0 72.6 12.1 69.5 2.2
27 18.2.2020 13:30 0 0 73.3 11.9 74.7 2.1
28 18.2.2020 13:00 0 0 73.9 11.4 76.8 2
29 18.2.2020 12:30 0 0 74.9 11.1 39.3 1.5
30 18.2.2020 12:00 0 0 75.8 10.7 93.6 2.3
31 18.2.2020 11:30 0 0 75.8 10.6 112.3 1.9
32 18.2.2020 11:00 0 0 78.3 10 133.5 1.3
33 18.2.2020 10:30 0 0 78.9 9.5 126.2 1.8
34 18.2.2020 10:00 9 0 79.8 9.1 54 1
35 18.2.2020 09:30 10 0 82.3 8.6 75.3 0.6
36 18.2.2020 09:00 10 0 86 8 108.1 0.4
37 18.2.2020 08:30 10 0 85.7 7.8 77.3 1.3
38 18.2.2020 08:00 4 0 81 7.5 65.2 1.1
39 18.2.2020 07:30 0 0 77.7 7.6 58.5 0.7
40 18.2.2020 07:00 3 0 74.3 8.1 22 1.1
41 18.2.2020 06:30 0 0 75.5 7.7 298.7 1.5
42 18.2.2020 06:00 0 0 72.4 8.4 251.3 0.5
43 18.2.2020 05:30 1 0 71.6 8.3 84.5 0.5
44 18.2.2020 05:00 0 0 74.1 7.8 139.1 0.5
45 18.2.2020 04:30 0 0 72.8 8 88.4 0.8
46 18.2.2020 04:00 0 0 72 8.3 68.4 1.1
47 18.2.2020 03:30 0 0 64.6 9.7 78.6 1.3
48 18.2.2020 03:00 0 0 64.3 9.8 250.5 2.2
© 2011 Ministrstvo za kmetijstvo, gozdarstvo in prehrano. Vse pravice pridržane.